createdAt,value
2019-04-06T00:03:40.194Z,98246.94
2019-04-06T00:08:45.371Z,98251.30
2019-04-06T00:13:50.615Z,98257.12
2019-04-06T00:18:55.925Z,98266.70
2019-04-06T00:24:01.324Z,98265.62
2019-04-06T00:29:06.928Z,98264.56
2019-04-06T00:34:12.249Z,98265.44
2019-04-06T00:39:17.486Z,98273.31
2019-04-06T00:44:23.111Z,98274.55
2019-04-06T00:49:28.370Z,98266.19
2019-04-06T00:54:33.529Z,98270.64
2019-04-06T00:59:38.910Z,98268.73
2019-04-06T01:04:44.318Z,98268.83
2019-04-06T01:09:49.657Z,98277.94
2019-04-06T01:14:54.983Z,98277.69
2019-04-06T01:20:00.289Z,98282.91
2019-04-06T01:25:06.104Z,98282.08
2019-04-06T01:30:11.899Z,98271.90
2019-04-06T01:35:17.094Z,98285.15
2019-04-06T01:40:23.340Z,98286.86
2019-04-06T01:45:28.735Z,98294.86
2019-04-06T01:50:33.934Z,98297.38
2019-04-06T01:55:39.204Z,98290.38
2019-04-06T02:00:57.844Z,98298.34
2019-04-06T02:06:03.826Z,98273.20
2019-04-06T02:11:09.150Z,98284.30
2019-04-06T02:16:14.441Z,98286.28
2019-04-06T02:21:19.718Z,98289.27
2019-04-06T02:26:30.725Z,98283.34
2019-04-06T02:31:44.809Z,98283.45
2019-04-06T02:36:59.231Z,98279.06
2019-04-06T02:42:09.146Z,98289.75
2019-04-06T02:47:14.359Z,98304.45
2019-04-06T02:52:19.545Z,98311.05
2019-04-06T02:57:24.772Z,98312.92
2019-04-06T03:02:30.040Z,98321.06
2019-04-06T03:07:35.642Z,98322.50
2019-04-06T03:12:40.993Z,98321.19
2019-04-06T03:17:46.144Z,98326.81
2019-04-06T03:22:51.379Z,98322.91
2019-04-06T03:27:56.526Z,98314.91
2019-04-06T03:33:01.840Z,98322.91
2019-04-06T03:38:07.218Z,98320.15
2019-04-06T03:43:12.623Z,98325.09
2019-04-06T03:48:17.855Z,98320.27
2019-04-06T03:53:23.495Z,98331.91
2019-04-06T03:58:28.714Z,98331.91
2019-04-06T04:03:34.067Z,98334.56
2019-04-06T04:08:39.344Z,98326.77
2019-04-06T04:13:44.616Z,98327.69
2019-04-06T04:18:49.962Z,98326.44
2019-04-06T04:23:55.236Z,98331.27
2019-04-06T04:29:00.443Z,98334.63
2019-04-06T04:34:05.820Z,98320.98
2019-04-06T04:39:11.124Z,98324.55
2019-04-06T04:44:16.471Z,98329.50
2019-04-06T04:49:21.785Z,98331.67
2019-04-06T04:54:27.073Z,98330.45
2019-04-06T04:59:32.406Z,98330.66
2019-04-06T05:04:37.742Z,98340.36
2019-04-06T05:09:42.992Z,98344.58
2019-04-06T05:14:57.777Z,98358.97
2019-04-06T05:20:03.192Z,98353.52
2019-04-06T05:25:09.332Z,98359.23
2019-04-06T05:30:15.497Z,98364.70
2019-04-06T05:35:20.808Z,98374.28
2019-04-06T05:40:26.116Z,98375.06
2019-04-06T05:45:31.357Z,98376.43
2019-04-06T05:50:36.627Z,98379.37
2019-04-06T05:55:42.088Z,98380.94
2019-04-06T06:00:47.352Z,98381.48
2019-04-06T06:05:52.874Z,98388.16
2019-04-06T06:10:58.583Z,98400.86
2019-04-06T06:16:04.003Z,98396.39
2019-04-06T06:21:09.261Z,98395.85
2019-04-06T06:26:14.656Z,98402.77
2019-04-06T06:31:20.172Z,98405.76
2019-04-06T06:36:25.673Z,98402.27
2019-04-06T06:41:31.034Z,98404.93
2019-04-06T06:46:36.345Z,98415.58
2019-04-06T06:51:41.752Z,98420.86
2019-04-06T06:56:47.098Z,98427.73
2019-04-06T07:01:52.517Z,98439.75
2019-04-06T07:06:58.119Z,98434.29
2019-04-06T07:12:03.451Z,98435.11
2019-04-06T07:17:08.908Z,98424.53
2019-04-06T07:22:14.171Z,98431.23
2019-04-06T07:27:19.572Z,98425.88
2019-04-06T07:32:26.019Z,98420.67
2019-04-06T07:37:31.331Z,98428.16
2019-04-06T07:42:36.931Z,98433.06
2019-04-06T07:47:42.232Z,98429.36
2019-04-06T07:52:49.852Z,98432.57
2019-04-06T07:57:55.358Z,98426.58
2019-04-06T08:03:05.332Z,98447.34
2019-04-06T08:08:10.711Z,98445.72
2019-04-06T08:13:16.267Z,98452.61
2019-04-06T08:18:21.871Z,98458.61
2019-04-06T08:23:27.350Z,98465.52
2019-04-06T08:28:32.731Z,98467.48
2019-04-06T08:33:38.186Z,98462.11
2019-04-06T08:38:43.532Z,98461.90
2019-04-06T08:43:48.772Z,98470.40
2019-04-06T08:48:54.092Z,98466.14
2019-04-06T08:53:59.587Z,98475.68
2019-04-06T08:59:11.597Z,98476.43
2019-04-06T09:04:12.592Z,98481.91
2019-04-06T09:09:17.912Z,98479.98
2019-04-06T09:14:25.353Z,98485.27
2019-04-06T09:19:30.774Z,98493.51
2019-04-06T09:24:36.225Z,98487.29
2019-04-06T09:29:41.652Z,98489.15
2019-04-06T09:34:47.131Z,98494.56
2019-04-06T09:39:53.598Z,98497.25
2019-04-06T09:45:06.149Z,98501.66
2019-04-06T09:50:25.131Z,98495.72
2019-04-06T09:55:40.786Z,98514.28
2019-04-06T10:00:55.052Z,98506.01
2019-04-06T10:06:09.132Z,98515.34
2019-04-06T10:11:23.012Z,98516.65
2019-04-06T10:16:37.072Z,98517.42
2019-04-06T10:21:58.594Z,98517.06
2019-04-06T10:27:12.032Z,98515.13
2019-04-06T10:32:29.051Z,98518.35
2019-04-06T10:37:43.012Z,98526.17
2019-04-06T10:43:00.349Z,98535.73
2019-04-06T10:48:12.827Z,98543.70
2019-04-06T10:53:27.186Z,98554.13
2019-04-06T10:58:45.740Z,98546.03
2019-04-06T11:03:59.025Z,98548.59
2019-04-06T11:09:15.293Z,98549.55
2019-04-06T11:14:29.058Z,98549.55
2019-04-06T11:19:46.126Z,98546.17
2019-04-06T11:25:10.318Z,98544.31
2019-04-06T11:30:22.466Z,98556.38
2019-04-06T11:35:36.006Z,98548.00
2019-04-06T11:40:50.671Z,98573.63
2019-04-06T11:46:04.933Z,98562.05
2019-04-06T11:51:25.737Z,98568.45
2019-04-06T11:56:40.592Z,98579.05
2019-04-06T12:02:04.893Z,98589.78
2019-04-06T12:07:19.256Z,98596.04
2019-04-06T12:12:43.471Z,98589.34
2019-04-06T12:18:00.037Z,98595.51
2019-04-06T12:23:14.105Z,98615.83
2019-04-06T12:28:27.952Z,98614.45
2019-04-06T12:33:49.411Z,98619.66
2019-04-06T12:39:04.006Z,98622.70
2019-04-06T12:44:19.864Z,98621.39
2019-04-06T12:49:34.057Z,98622.52
2019-04-06T12:54:50.927Z,98627.44
2019-04-06T13:00:05.095Z,98624.75
2019-04-06T13:05:19.911Z,98628.40
2019-04-06T13:10:33.002Z,98634.38
2019-04-06T13:15:46.998Z,98637.03
2019-04-06T13:21:01.098Z,98632.39
2019-04-06T13:26:15.127Z,98642.86
2019-04-06T13:31:32.717Z,98643.17
2019-04-06T13:36:45.732Z,98631.77
2019-04-06T13:41:59.812Z,98640.97
2019-04-06T13:47:24.053Z,98634.39
2019-04-06T13:52:38.014Z,98627.22
2019-04-06T13:57:48.437Z,98615.72
2019-04-06T14:03:00.601Z,98629.00
2019-04-06T14:08:14.337Z,98622.97
2019-04-06T14:13:27.801Z,98624.92
2019-04-06T14:18:42.019Z,98613.82
2019-04-06T14:24:00.013Z,98617.57
2019-04-06T14:29:14.032Z,98604.32
2019-04-06T14:34:30.336Z,98618.04
2019-04-06T14:39:49.978Z,98605.08
2019-04-06T14:45:04.827Z,98603.03
2019-04-06T14:50:19.085Z,98601.82
2019-04-06T14:55:39.242Z,98601.97
2019-04-06T15:00:54.010Z,98621.59
2019-04-06T15:06:14.853Z,98620.06
2019-04-06T15:11:29.209Z,98627.63
2019-04-06T15:16:42.390Z,98634.05
2019-04-06T15:21:59.746Z,98631.08
2019-04-06T15:27:13.423Z,98635.16
2019-04-06T15:32:27.014Z,98638.01
2019-04-06T15:37:42.400Z,98651.89
2019-04-06T15:42:57.252Z,98655.02
2019-04-06T15:48:13.325Z,98661.98
2019-04-06T15:53:30.292Z,98667.44
2019-04-06T15:58:41.102Z,98660.73
2019-04-06T16:03:55.170Z,98673.05
2019-04-06T16:09:15.094Z,98676.69
2019-04-06T16:14:31.974Z,98671.45
2019-04-06T16:19:45.465Z,98672.14
2019-04-06T16:24:59.558Z,98661.34
2019-04-06T16:30:16.341Z,98661.34
2019-04-06T16:35:30.031Z,98672.31
2019-04-06T16:40:44.014Z,98672.02
2019-04-06T16:46:00.653Z,98673.61
2019-04-06T16:51:16.694Z,98671.78
2019-04-06T16:56:28.815Z,98679.72
2019-04-06T17:01:43.772Z,98677.34
2019-04-06T17:07:00.718Z,98699.27
2019-04-06T17:12:15.934Z,98698.02
2019-04-06T17:17:29.818Z,98702.02
2019-04-06T17:22:53.105Z,98713.12
2019-04-06T17:28:05.534Z,98718.86
2019-04-06T17:33:19.052Z,98711.81
2019-04-06T17:38:30.560Z,98722.98
2019-04-06T17:43:47.490Z,98734.13
2019-04-06T17:49:10.174Z,98731.19
2019-04-06T17:54:24.390Z,98738.47
2019-04-06T17:59:45.237Z,98731.53
2019-04-06T18:05:05.932Z,98741.44
2019-04-06T18:10:18.535Z,98744.41
2019-04-06T18:15:24.407Z,98751.10
2019-04-06T18:20:30.986Z,98759.84
2019-04-06T18:25:37.275Z,98765.16
2019-04-06T18:30:43.087Z,98768.20
2019-04-06T18:35:51.646Z,98775.39
2019-04-06T18:40:57.039Z,98786.38
2019-04-06T18:46:02.577Z,98777.84
2019-04-06T18:51:07.883Z,98778.12
2019-04-06T18:56:13.523Z,98769.69
2019-04-06T19:01:19.314Z,98763.17
2019-04-06T19:06:25.714Z,98772.42
2019-04-06T19:11:31.312Z,98783.16
2019-04-06T19:16:36.735Z,98784.64
2019-04-06T19:21:42.568Z,98794.06
2019-04-06T19:26:47.874Z,98772.98
2019-04-06T19:31:54.451Z,98788.36
2019-04-06T19:37:00.206Z,98786.66
2019-04-06T19:42:06.434Z,98793.70
2019-04-06T19:47:12.059Z,98795.51
2019-04-06T19:52:17.562Z,98799.69
2019-04-06T19:57:22.904Z,98799.81
2019-04-06T20:02:28.759Z,98793.22
2019-04-06T20:07:34.323Z,98794.28
2019-04-06T20:12:40.024Z,98793.22
2019-04-06T20:17:45.322Z,98791.39
2019-04-06T20:22:50.622Z,98785.06
2019-04-06T20:27:56.573Z,98780.73
2019-04-06T20:33:02.051Z,98787.66
2019-04-06T20:38:08.843Z,98780.95
2019-04-06T20:43:14.521Z,98784.41
2019-04-06T20:48:20.433Z,98782.36
2019-04-06T20:53:25.902Z,98782.58
2019-04-06T20:58:31.365Z,98785.71
2019-04-06T21:03:36.602Z,98785.20
2019-04-06T21:08:42.018Z,98797.88
2019-04-06T21:13:47.307Z,98782.43
2019-04-06T21:18:52.753Z,98800.88
2019-04-06T21:23:58.218Z,98792.38
2019-04-06T21:29:03.726Z,98802.25
2019-04-06T21:34:12.685Z,98798.30
2019-04-06T21:39:16.406Z,98786.88
2019-04-06T21:44:23.020Z,98782.03
2019-04-06T21:49:28.242Z,98778.05
2019-04-06T21:54:34.414Z,98784.39
2019-04-06T21:59:41.827Z,98779.03
2019-04-06T22:04:47.202Z,98779.63
2019-04-06T22:09:52.678Z,98783.83
2019-04-06T22:14:58.118Z,98777.12
2019-04-06T22:20:04.070Z,98787.19
2019-04-06T22:25:09.526Z,98773.08
2019-04-06T22:30:18.978Z,98770.33
2019-04-06T22:35:23.990Z,98769.81
2019-04-06T22:40:29.461Z,98770.34
2019-04-06T22:45:35.951Z,98766.84
2019-04-06T22:50:42.267Z,98765.25
2019-04-06T22:55:47.482Z,98757.28
2019-04-06T23:00:57.342Z,98760.94
2019-04-06T23:06:06.321Z,98762.02
2019-04-06T23:11:11.732Z,98754.92
2019-04-06T23:16:17.076Z,98750.67
2019-04-06T23:21:22.890Z,98748.95
2019-04-06T23:26:28.150Z,98739.39
2019-04-06T23:31:33.618Z,98742.18
2019-04-06T23:36:39.450Z,98738.84
2019-04-06T23:41:45.026Z,98744.16
2019-04-06T23:46:50.991Z,98746.16
2019-04-06T23:51:56.439Z,98739.52
2019-04-06T23:57:02.522Z,98729.38
